Time,TemperatureF,DewpointF,PressureIn,WindDirection,WindDirectionDegrees,WindSpeedMPH,WindSpeedGustMPH,Humidity,HourlyPrecipIn,Conditions,Clouds,dailyrainin,SoftwareType,DateUTC
2013-07-21 00:01:00,76.0,62.0,-100.00,North,355,7.0,13.0,64,0.00,,,-99.99,,2013-07-21 04:01:00,
2013-07-21 00:11:00,75.0,64.0,-100.00,North,10,9.0,12.0,67,0.00,,,-99.99,,2013-07-21 04:11:00,
2013-07-21 00:22:00,75.0,64.0,-100.00,NNE,15,6.0,12.0,69,0.00,,,-99.99,,2013-07-21 04:22:00,
2013-07-21 00:32:00,76.0,65.0,-100.00,NNE,25,4.0,9.0,71,0.00,,,-99.99,,2013-07-21 04:32:00,
2013-07-21 00:43:00,76.0,66.0,-100.00,NE,35,7.0,11.0,71,0.00,,,-99.99,,2013-07-21 04:43:00,
2013-07-21 00:53:00,76.0,67.0,-100.00,NE,45,9.0,13.0,74,0.00,,,-99.99,,2013-07-21 04:53:00,
2013-07-21 01:02:00,76.0,68.0,-100.00,NNE,30,5.0,12.0,77,0.00,,,-99.99,,2013-07-21 05:02:00,
2013-07-21 01:11:00,76.0,68.0,-100.00,NNE,25,5.0,11.0,76,0.00,,,-99.99,,2013-07-21 05:11:00,
2013-07-21 01:22:00,76.0,68.0,-100.00,NE,45,2.0,11.0,76,0.00,,,-99.99,,2013-07-21 05:22:00,
2013-07-21 01:32:00,75.0,67.0,-100.00,North,5,7.0,9.0,74,0.00,,,-99.99,,2013-07-21 05:32:00,
2013-07-21 01:42:00,74.0,65.0,-100.00,NNW,345,5.0,7.0,74,0.00,,,-99.99,,2013-07-21 05:42:00,
2013-07-21 01:52:00,74.0,65.0,-100.00,NW,325,6.0,7.0,74,0.00,,,-99.99,,2013-07-21 05:52:00,
2013-07-21 02:01:00,73.0,65.0,-100.00,NNW,345,2.0,4.0,76,0.00,,,-99.99,,2013-07-21 06:01:00,
2013-07-21 02:11:00,73.0,65.0,-100.00,NE,45,3.0,4.0,77,0.00,,,-99.99,,2013-07-21 06:11:00,
2013-07-21 02:22:00,73.0,65.0,-100.00,North,5,5.0,6.0,77,0.00,,,-99.99,,2013-07-21 06:22:00,
2013-07-21 02:32:00,72.0,65.0,-100.00,North,5,3.0,6.0,78,0.00,,,-99.99,,2013-07-21 06:32:00,
2013-07-21 02:42:00,72.0,65.0,-100.00,NNE,20,2.0,6.0,78,0.00,,,-99.99,,2013-07-21 06:42:00,
2013-07-21 02:52:00,72.0,65.0,-100.00,North,350,4.0,6.0,78,0.00,,,-99.99,,2013-07-21 06:52:00,
2013-07-21 03:01:00,72.0,65.0,-100.00,NNE,15,4.0,6.0,79,0.00,,,-99.99,,2013-07-21 07:01:00,
2013-07-21 03:11:00,72.0,65.0,-100.00,North,10,6.0,7.0,79,0.00,,,-99.99,,2013-07-21 07:11:00,
2013-07-21 03:22:00,72.0,65.0,-100.00,NNE,25,6.0,7.0,79,0.00,,,-99.99,,2013-07-21 07:22:00,
2013-07-21 03:32:00,73.0,66.0,-100.00,NNE,30,4.0,12.0,79,0.00,,,-99.99,,2013-07-21 07:32:00,
2013-07-21 03:43:00,74.0,68.0,-100.00,NE,40,11.0,16.0,82,0.00,,,-99.99,,2013-07-21 07:43:00,
2013-07-21 03:52:00,73.0,68.0,-100.00,NE,35,13.0,18.0,83,0.00,,,-99.99,,2013-07-21 07:52:00,
2013-07-21 04:01:00,73.0,68.0,-100.00,NE,40,12.0,18.0,83,0.00,,,-99.99,,2013-07-21 08:01:00,
2013-07-21 04:11:00,73.0,67.0,-100.00,NE,40,9.0,18.0,81,0.00,,,-99.99,,2013-07-21 08:11:00,
2013-07-21 04:22:00,74.0,67.0,-100.00,NE,35,8.0,16.0,80,0.00,,,-99.99,,2013-07-21 08:22:00,
2013-07-21 04:33:00,73.0,67.0,-100.00,NNE,20,7.0,17.0,81,0.00,,,-99.99,,2013-07-21 08:33:00,
2013-07-21 04:43:00,73.0,66.0,-100.00,NNE,25,13.0,21.0,78,0.00,,,-99.99,,2013-07-21 08:43:00,
2013-07-21 04:52:00,73.0,66.0,-100.00,NNE,30,12.0,21.0,78,0.00,,,-99.99,,2013-07-21 08:52:00,
2013-07-21 05:02:00,73.0,65.0,-100.00,NE,50,10.0,19.0,77,0.00,,,-99.99,,2013-07-21 09:02:00,
2013-07-21 05:12:00,73.0,65.0,-100.00,NE,50,10.0,19.0,76,0.00,,,-99.99,,2013-07-21 09:12:00,
2013-07-21 05:22:00,72.0,65.0,-100.00,NE,45,9.0,16.0,77,0.00,,,-99.99,,2013-07-21 09:22:00,
2013-07-21 05:32:00,72.0,64.0,-100.00,NE,35,11.0,18.0,76,0.00,,,-99.99,,2013-07-21 09:32:00,
2013-07-21 05:42:00,72.0,64.0,-100.00,NE,35,9.0,19.0,76,0.00,,,-99.99,,2013-07-21 09:42:00,
2013-07-21 05:52:00,72.0,64.0,-100.00,NE,35,13.0,19.0,75,0.00,,,-99.99,,2013-07-21 09:52:00,
2013-07-21 06:02:00,72.0,64.0,-100.00,NE,35,12.0,18.0,74,0.00,,,-99.99,,2013-07-21 10:02:00,
2013-07-21 06:11:00,72.0,63.0,-100.00,NE,40,13.0,17.0,74,0.00,,,-99.99,,2013-07-21 10:11:00,
2013-07-21 06:22:00,72.0,63.0,-100.00,NE,40,10.0,15.0,74,0.00,,,-99.99,,2013-07-21 10:22:00,
2013-07-21 06:32:00,72.0,63.0,-100.00,NE,40,11.0,17.0,73,0.00,,,-99.99,,2013-07-21 10:32:00,
2013-07-21 06:43:00,72.0,63.0,-100.00,NE,35,12.0,16.0,74,0.00,,,-99.99,,2013-07-21 10:43:00,
2013-07-21 06:52:00,72.0,63.0,-100.00,NNE,30,11.0,17.0,73,0.00,,,-99.99,,2013-07-21 10:52:00,
2013-07-21 07:02:00,72.0,63.0,-100.00,NE,40,12.0,17.0,72,0.00,,,-99.99,,2013-07-21 11:02:00,
2013-07-21 07:12:00,72.0,62.0,-100.00,NE,40,11.0,17.0,71,0.00,,,-99.99,,2013-07-21 11:12:00,
2013-07-21 07:22:00,72.0,62.0,-100.00,NE,35,14.0,17.0,70,0.00,,,-99.99,,2013-07-21 11:22:00,
2013-07-21 07:33:00,73.0,62.0,-100.00,NE,35,14.0,19.0,68,0.00,,,-99.99,,2013-07-21 11:33:00,
2013-07-21 07:43:00,73.0,61.0,-100.00,NE,35,12.0,19.0,67,0.00,,,-99.99,,2013-07-21 11:43:00,
2013-07-21 07:52:00,72.0,61.0,-100.00,NE,35,13.0,18.0,67,0.00,,,-99.99,,2013-07-21 11:52:00,
2013-07-21 08:01:00,72.0,61.0,-100.00,NE,40,12.0,19.0,67,0.00,,,-99.99,,2013-07-21 12:01:00,
2013-07-21 08:11:00,72.0,60.0,-100.00,NE,40,12.0,19.0,67,0.00,,,-99.99,,2013-07-21 12:11:00,
2013-07-21 08:22:00,72.0,60.0,-100.00,NE,40,13.0,18.0,67,0.00,,,-99.99,,2013-07-21 12:22:00,
2013-07-21 08:32:00,72.0,60.0,-100.00,NE,45,11.0,19.0,67,0.00,,,-99.99,,2013-07-21 12:32:00,
2013-07-21 08:43:00,72.0,60.0,-100.00,NE,35,12.0,19.0,67,0.00,,,-99.99,,2013-07-21 12:43:00,
2013-07-21 08:53:00,72.0,60.0,-100.00,NE,50,9.0,19.0,66,0.00,,,-99.99,,2013-07-21 12:53:00,
2013-07-21 09:02:00,72.0,60.0,-100.00,NE,35,9.0,17.0,65,0.00,,,-99.99,,2013-07-21 13:02:00,
2013-07-21 09:12:00,72.0,59.0,-100.00,NE,35,14.0,17.0,64,0.00,,,-99.99,,2013-07-21 13:12:00,
2013-07-21 09:22:00,73.0,59.0,-100.00,NNE,30,12.0,16.0,63,0.00,,,-99.99,,2013-07-21 13:22:00,
2013-07-21 09:32:00,73.0,58.0,-100.00,NE,35,10.0,17.0,61,0.00,,,-99.99,,2013-07-21 13:32:00,
2013-07-21 09:43:00,73.0,58.0,-100.00,NE,40,11.0,17.0,60,0.00,,,-99.99,,2013-07-21 13:43:00,
2013-07-21 09:52:00,73.0,59.0,-100.00,NNE,20,7.0,17.0,61,0.00,,,-99.99,,2013-07-21 13:52:00,
2013-07-21 10:01:00,73.0,58.0,-100.00,NE,45,11.0,19.0,60,0.00,,,-99.99,,2013-07-21 14:01:00,
2013-07-21 10:12:00,73.0,58.0,-100.00,NE,55,7.0,15.0,61,0.00,,,-99.99,,2013-07-21 14:12:00,
2013-07-21 10:23:00,73.0,59.0,-100.00,East,80,3.0,16.0,61,0.00,,,-99.99,,2013-07-21 14:23:00,
2013-07-21 10:32:00,74.0,59.0,-100.00,East,85,4.0,13.0,60,0.00,,,-99.99,,2013-07-21 14:32:00,
2013-07-21 10:43:00,74.0,59.0,-100.00,NE,50,9.0,13.0,60,0.00,,,-99.99,,2013-07-21 14:43:00,
2013-07-21 10:53:00,74.0,60.0,-100.00,NE,50,4.0,12.0,61,0.00,,,-99.99,,2013-07-21 14:53:00,
2013-07-21 11:02:00,74.0,60.0,-100.00,NE,35,8.0,12.0,60,0.00,,,-99.99,,2013-07-21 15:02:00,
2013-07-21 11:11:00,74.0,59.0,-100.00,NE,35,7.0,12.0,59,0.00,,,-99.99,,2013-07-21 15:11:00,
2013-07-21 11:22:00,74.0,60.0,-100.00,NNE,25,9.0,14.0,61,0.00,,,-99.99,,2013-07-21 15:22:00,
2013-07-21 11:32:00,74.0,60.0,-100.00,NNE,20,9.0,13.0,61,0.00,,,-99.99,,2013-07-21 15:32:00,
2013-07-21 11:43:00,75.0,60.0,-100.00,NNE,25,9.0,13.0,61,0.00,,,-99.99,,2013-07-21 15:43:00,
2013-07-21 11:53:00,75.0,61.0,-100.00,North,5,7.0,11.0,61,0.00,,,-99.99,,2013-07-21 15:53:00,
2013-07-21 12:01:00,74.0,60.0,-100.00,NNE,20,10.0,13.0,61,0.00,,,-99.99,,2013-07-21 16:01:00,
2013-07-21 12:11:00,74.0,61.0,-100.00,NNE,25,9.0,12.0,62,0.00,,,-99.99,,2013-07-21 16:11:00,
2013-07-21 12:22:00,74.0,61.0,-100.00,NNE,20,10.0,14.0,62,0.00,,,-99.99,,2013-07-21 16:22:00,
2013-07-21 12:32:00,75.0,62.0,-100.00,NNE,20,9.0,14.0,64,0.00,,,-99.99,,2013-07-21 16:32:00,
2013-07-21 12:43:00,75.0,62.0,-100.00,NNE,20,9.0,14.0,64,0.00,,,-99.99,,2013-07-21 16:43:00,
2013-07-21 12:52:00,75.0,62.0,-100.00,North,-999,-999.0,-999.0,63,0.00,,,-99.99,,2013-07-21 16:52:00,
2013-07-21 13:02:00,75.0,62.0,-100.00,NNE,25,10.0,12.0,63,0.00,,,-99.99,,2013-07-21 17:02:00,
2013-07-21 13:11:00,75.0,62.0,-100.00,North,-999,-999.0,-999.0,63,0.00,,,-99.99,,2013-07-21 17:11:00,
2013-07-21 13:22:00,75.0,62.0,-100.00,NNE,25,10.0,14.0,64,0.00,,,-99.99,,2013-07-21 17:22:00,
2013-07-21 13:33:00,76.0,63.0,-100.00,NNE,25,9.0,12.0,64,0.00,,,-99.99,,2013-07-21 17:33:00,
2013-07-21 13:43:00,76.0,62.0,-100.00,NNE,20,9.0,12.0,63,0.00,,,-99.99,,2013-07-21 17:43:00,
2013-07-21 13:53:00,76.0,63.0,-100.00,NNE,25,9.0,12.0,63,0.00,,,-99.99,,2013-07-21 17:53:00,
2013-07-21 14:01:00,76.0,63.0,-100.00,NNE,25,9.0,12.0,63,0.00,,,-99.99,,2013-07-21 18:01:00,
2013-07-21 14:11:00,77.0,63.0,-100.00,NNE,25,8.0,13.0,62,0.00,,,-99.99,,2013-07-21 18:11:00,
2013-07-21 14:22:00,77.0,63.0,-100.00,NNE,25,7.0,12.0,61,0.00,,,-99.99,,2013-07-21 18:22:00,
2013-07-21 14:32:00,77.0,63.0,-100.00,NNE,20,10.0,12.0,61,0.00,,,-99.99,,2013-07-21 18:32:00,
2013-07-21 14:43:00,77.0,63.0,-100.00,NNE,20,7.0,12.0,62,0.00,,,-99.99,,2013-07-21 18:43:00,
2013-07-21 14:52:00,77.0,62.0,-100.00,NNE,25,8.0,13.0,61,0.00,,,-99.99,,2013-07-21 18:52:00,
2013-07-21 15:01:00,77.0,63.0,-100.00,NNE,20,8.0,13.0,61,0.00,,,-99.99,,2013-07-21 19:01:00,
2013-07-21 15:11:00,78.0,63.0,-100.00,NE,40,6.0,11.0,60,0.00,,,-99.99,,2013-07-21 19:11:00,
2013-07-21 15:22:00,78.0,63.0,-100.00,NE,40,6.0,11.0,59,0.00,,,-99.99,,2013-07-21 19:22:00,
2013-07-21 15:32:00,78.0,62.0,-100.00,NNE,20,7.0,12.0,58,0.00,,,-99.99,,2013-07-21 19:32:00,
2013-07-21 15:42:00,78.0,62.0,-100.00,NNE,30,9.0,12.0,57,0.00,,,-99.99,,2013-07-21 19:42:00,
2013-07-21 15:52:00,78.0,63.0,-100.00,NNE,25,10.0,13.0,58,0.00,,,-99.99,,2013-07-21 19:52:00,
2013-07-21 16:01:00,78.0,62.0,-100.00,NNE,25,9.0,14.0,57,0.00,,,-99.99,,2013-07-21 20:01:00,
2013-07-21 16:12:00,78.0,62.0,-100.00,NNE,20,8.0,11.0,58,0.00,,,-99.99,,2013-07-21 20:12:00,
2013-07-21 16:22:00,79.0,61.0,-100.00,NNE,20,9.0,12.0,55,0.00,,,-99.99,,2013-07-21 20:22:00,
2013-07-21 16:32:00,79.0,63.0,-100.00,NE,45,6.0,12.0,59,0.00,,,-99.99,,2013-07-21 20:32:00,
2013-07-21 16:43:00,78.0,63.0,-100.00,NNE,20,9.0,12.0,59,0.00,,,-99.99,,2013-07-21 20:43:00,
2013-07-21 16:52:00,78.0,62.0,-100.00,NNE,25,9.0,12.0,56,0.00,,,-99.99,,2013-07-21 20:52:00,
2013-07-21 17:01:00,78.0,62.0,-100.00,NNE,20,10.0,12.0,58,0.00,,,-99.99,,2013-07-21 21:01:00,
2013-07-21 17:11:00,78.0,61.0,-100.00,NNE,15,8.0,12.0,55,0.00,,,-99.99,,2013-07-21 21:11:00,
2013-07-21 17:22:00,78.0,62.0,-100.00,NNE,25,9.0,12.0,57,0.00,,,-99.99,,2013-07-21 21:22:00,
2013-07-21 17:32:00,79.0,61.0,-100.00,NE,45,6.0,12.0,53,0.00,,,-99.99,,2013-07-21 21:32:00,
2013-07-21 17:43:00,80.0,61.0,-100.00,NNE,30,5.0,9.0,52,0.00,,,-99.99,,2013-07-21 21:43:00,
2013-07-21 17:52:00,80.0,61.0,-100.00,East,85,4.0,10.0,52,0.00,,,-99.99,,2013-07-21 21:52:00,
2013-07-21 18:01:00,80.0,61.0,-100.00,East,90,6.0,13.0,53,0.00,,,-99.99,,2013-07-21 22:01:00,
2013-07-21 18:11:00,80.0,61.0,-100.00,East,80,9.0,11.0,53,0.00,,,-99.99,,2013-07-21 22:11:00,
2013-07-21 18:22:00,79.0,61.0,-100.00,East,95,6.0,12.0,53,0.00,,,-99.99,,2013-07-21 22:22:00,
2013-07-21 18:32:00,79.0,61.0,-100.00,East,85,7.0,11.0,53,0.00,,,-99.99,,2013-07-21 22:32:00,
2013-07-21 18:43:00,79.0,61.0,-100.00,East,90,6.0,12.0,55,0.00,,,-99.99,,2013-07-21 22:43:00,
2013-07-21 19:02:00,78.0,62.0,-100.00,East,85,6.0,13.0,56,0.00,,,-99.99,,2013-07-21 23:02:00,
2013-07-21 19:11:00,78.0,62.0,-100.00,ENE,75,9.0,11.0,57,0.00,,,-99.99,,2013-07-21 23:11:00,
2013-07-21 19:22:00,78.0,62.0,-100.00,East,90,6.0,12.0,58,0.00,,,-99.99,,2013-07-21 23:22:00,
2013-07-21 19:32:00,78.0,63.0,-100.00,East,85,7.0,9.0,60,0.00,,,-99.99,,2013-07-21 23:32:00,
2013-07-21 19:42:00,78.0,63.0,-100.00,SE,140,4.0,11.0,60,0.00,,,-99.99,,2013-07-21 23:42:00,
2013-07-21 19:52:00,78.0,62.0,-100.00,ESE,110,6.0,12.0,60,0.00,,,-99.99,,2013-07-21 23:52:00,
2013-07-21 20:01:00,78.0,62.0,-100.00,ESE,110,6.0,12.0,60,0.00,,,-99.99,,2013-07-22 00:01:00,
2013-07-21 20:11:00,77.0,63.0,-100.00,East,85,7.0,-999.0,60,0.00,,,-99.99,,2013-07-22 00:11:00,
2013-07-21 20:22:00,77.0,63.0,-100.00,East,90,6.0,-999.0,61,0.00,,,-99.99,,2013-07-22 00:22:00,
2013-07-21 20:32:00,77.0,64.0,-100.00,ESE,105,6.0,9.0,63,0.00,,,-99.99,,2013-07-22 00:32:00,
2013-07-21 20:42:00,77.0,64.0,-100.00,North,-999,-999.0,-999.0,65,0.00,,,-99.99,,2013-07-22 00:42:00,
2013-07-21 20:52:00,77.0,64.0,-100.00,North,-999,-999.0,-999.0,65,0.00,,,-99.99,,2013-07-22 00:52:00,
2013-07-21 21:02:00,76.0,65.0,-100.00,East,85,6.0,-999.0,67,0.00,,,-99.99,,2013-07-22 01:02:00,
2013-07-21 21:12:00,76.0,65.0,-100.00,ESE,115,6.0,9.0,70,0.00,,,-99.99,,2013-07-22 01:12:00,
2013-07-21 21:22:00,76.0,65.0,-100.00,SE,130,4.0,-999.0,71,0.00,,,-99.99,,2013-07-22 01:22:00,
2013-07-21 21:32:00,76.0,65.0,-100.00,SE,130,4.0,-999.0,71,0.00,,,-99.99,,2013-07-22 01:32:00,
2013-07-21 21:42:00,75.0,65.0,-100.00,East,95,4.0,-999.0,72,0.00,,,-99.99,,2013-07-22 01:42:00,
2013-07-21 21:52:00,75.0,65.0,-100.00,East,85,6.0,9.0,72,0.00,,,-99.99,,2013-07-22 01:52:00,
2013-07-21 22:02:00,75.0,65.0,-100.00,East,85,5.0,8.0,73,0.00,,,-99.99,,2013-07-22 02:02:00,
2013-07-21 22:11:00,74.0,65.0,-100.00,ESE,115,4.0,7.0,74,0.00,,,-99.99,,2013-07-22 02:11:00,
2013-07-21 22:22:00,74.0,65.0,-100.00,ESE,115,4.0,7.0,74,0.00,,,-99.99,,2013-07-22 02:22:00,
2013-07-21 22:32:00,74.0,65.0,-100.00,ESE,115,4.0,7.0,74,0.00,,,-99.99,,2013-07-22 02:32:00,
2013-07-21 22:43:00,74.0,65.0,-100.00,East,90,5.0,-999.0,73,0.00,,,-99.99,,2013-07-22 02:43:00,
2013-07-21 22:52:00,74.0,65.0,-100.00,East,90,5.0,-999.0,73,0.00,,,-99.99,,2013-07-22 02:52:00,
2013-07-21 23:01:00,74.0,65.0,-100.00,East,85,5.0,-999.0,73,0.00,,,-99.99,,2013-07-22 03:01:00,
2013-07-21 23:12:00,74.0,65.0,-100.00,East,85,6.0,7.0,73,0.00,,,-99.99,,2013-07-22 03:12:00,
2013-07-21 23:22:00,74.0,65.0,-100.00,East,85,6.0,9.0,73,0.00,,,-99.99,,2013-07-22 03:22:00,
2013-07-21 23:33:00,74.0,65.0,-100.00,ESE,110,4.0,9.0,73,0.00,,,-99.99,,2013-07-22 03:33:00,
2013-07-21 23:43:00,74.0,65.0,-100.00,SE,140,6.0,9.0,72,0.00,,,-99.99,,2013-07-22 03:43:00,
2013-07-21 23:53:00,74.0,64.0,-100.00,SE,135,4.0,9.0,72,0.00,,,-99.99,,2013-07-22 03:53:00,